X  SluitMETAR luchtvaart weer gegevens      EHAM Amsterdam Schiphol

Temperatuur

5°C Temperatuur

3°C Dauwpunt

87% Vochtigheid



Wind

19 KM/U

12 MPH

 5 M/S

10 KTS



180°
Het Zuiden
Huidig weer

Wat bewolking Wat bewolking
Luchtdruk 1003.92 (hPa) - 29.65 (in)
Zicht 6.2 (mi) - 10 (km)
Vliegveld
Vliegveld code EHAM

Locatie Amsterdam Schiphol 18 (km)

Metar:
EHAM 152225Z 18010KT 9999 FEW048 05/03 Q1004 NOSIG

Tijd: 15-12-2019 23:25